createdAt,value
2022-09-12T00:01:56.309Z,2.00
2022-09-12T00:04:31.131Z,1.27
2022-09-12T00:07:02.260Z,2.92
2022-09-12T00:09:37.220Z,2.75
2022-09-12T00:12:24.703Z,1.45
2022-09-12T00:14:57.219Z,2.00
2022-09-12T00:17:29.863Z,2.67
2022-09-12T00:20:02.447Z,2.53
2022-09-12T00:22:42.981Z,2.67
2022-09-12T00:25:18.809Z,2.20
2022-09-12T00:27:59.060Z,2.25
2022-09-12T00:30:35.917Z,3.13
2022-09-12T00:33:10.510Z,1.58
2022-09-12T00:35:50.155Z,1.73
2022-09-12T00:38:32.415Z,2.78
2022-09-12T00:41:06.369Z,2.00
2022-09-12T00:43:47.363Z,2.15
2022-09-12T00:47:02.182Z,2.58
2022-09-12T00:50:13.563Z,2.58
2022-09-12T00:53:09.591Z,2.38
2022-09-12T00:55:47.885Z,3.25
2022-09-12T00:58:48.583Z,3.50
2022-09-12T01:01:32.830Z,2.20
2022-09-12T01:04:26.916Z,4.33
2022-09-12T01:10:20.088Z,2.20
2022-09-12T01:13:07.515Z,2.90
2022-09-12T01:15:46.702Z,3.53
2022-09-12T01:18:43.906Z,1.58
2022-09-12T01:22:38.123Z,2.85
2022-09-12T01:25:33.613Z,2.47
2022-09-12T01:29:05.116Z,2.08
2022-09-12T01:32:11.452Z,2.38
2022-09-12T01:34:56.207Z,3.33
2022-09-12T01:38:06.305Z,2.10
2022-09-12T01:40:47.612Z,3.42
2022-09-12T01:43:54.182Z,3.83
2022-09-12T01:49:14.495Z,2.05
2022-09-12T01:52:19.564Z,2.55
2022-09-12T01:55:23.200Z,3.00
2022-09-12T01:58:59.360Z,2.50
2022-09-12T02:04:29.148Z,2.80
2022-09-12T02:07:19.739Z,1.60
2022-09-12T02:10:19.180Z,2.75
2022-09-12T02:13:49.804Z,3.10
2022-09-12T02:16:50.282Z,2.75
2022-09-12T02:19:40.429Z,1.98
2022-09-12T02:22:25.665Z,1.85
2022-09-12T02:25:07.388Z,2.63
2022-09-12T02:28:16.978Z,3.22
2022-09-12T02:31:30.275Z,2.20
2022-09-12T02:34:37.291Z,2.85
2022-09-12T02:38:03.429Z,3.30
2022-09-12T02:40:47.473Z,2.05
2022-09-12T02:43:15.913Z,2.78
2022-09-12T02:45:43.308Z,3.10
2022-09-12T02:48:13.714Z,1.98
2022-09-12T02:50:42.149Z,3.08
2022-09-12T02:53:10.691Z,2.33
2022-09-12T02:55:40.238Z,3.05
2022-09-12T02:58:13.693Z,2.63
2022-09-12T03:01:08.688Z,2.53
2022-09-12T03:04:11.108Z,2.97
2022-09-12T03:06:52.719Z,3.03
2022-09-12T03:09:26.263Z,3.22
2022-09-12T03:12:32.338Z,3.55
2022-09-12T03:15:25.889Z,4.05
2022-09-12T03:18:32.044Z,2.63
2022-09-12T03:21:34.593Z,2.80
2022-09-12T03:24:04.679Z,3.65
2022-09-12T03:26:38.701Z,3.38
2022-09-12T03:29:08.281Z,3.13
2022-09-12T03:31:36.078Z,3.30
2022-09-12T03:34:03.460Z,2.15
2022-09-12T03:36:31.191Z,3.55
2022-09-12T03:38:58.522Z,4.63
2022-09-12T03:41:25.865Z,3.03
2022-09-12T03:43:53.284Z,4.93
2022-09-12T03:46:20.369Z,2.33
2022-09-12T03:48:47.548Z,3.65
2022-09-12T03:51:14.728Z,3.58
2022-09-12T03:53:42.298Z,2.17
2022-09-12T03:56:11.897Z,3.10
2022-09-12T03:58:39.543Z,4.68
2022-09-12T04:01:12.980Z,5.22
2022-09-12T04:03:45.394Z,3.85
2022-09-12T04:06:15.314Z,3.63
2022-09-12T04:08:43.857Z,3.58
2022-09-12T04:11:14.269Z,3.70
2022-09-12T04:13:43.319Z,3.45
2022-09-12T04:16:12.735Z,3.13
2022-09-12T04:18:40.472Z,2.13
2022-09-12T04:21:10.225Z,4.25
2022-09-12T04:23:38.200Z,4.28
2022-09-12T04:28:35.118Z,2.92
2022-09-12T04:31:05.087Z,4.22
2022-09-12T04:33:32.489Z,2.92
2022-09-12T04:36:11.814Z,2.95
2022-09-12T04:38:39.288Z,3.63
2022-09-12T04:41:14.341Z,4.32
2022-09-12T04:43:42.857Z,4.25
2022-09-12T04:46:11.683Z,2.92
2022-09-12T04:48:39.256Z,3.78
2022-09-12T04:51:20.217Z,3.38
2022-09-12T04:53:52.900Z,3.72
2022-09-12T04:56:20.721Z,3.20
2022-09-12T04:58:48.802Z,4.20
2022-09-12T05:03:45.422Z,2.92
2022-09-12T05:06:22.227Z,3.55
2022-09-12T05:08:49.983Z,2.77
2022-09-12T05:11:24.561Z,3.22
2022-09-12T05:13:53.761Z,2.63
2022-09-12T05:16:22.132Z,3.97
2022-09-12T05:18:50.358Z,3.38
2022-09-12T05:21:20.829Z,3.25
2022-09-12T05:23:53.931Z,3.30
2022-09-12T05:26:24.722Z,2.85
2022-09-12T05:28:54.428Z,3.28
2022-09-12T05:31:24.953Z,3.05
2022-09-12T05:33:58.574Z,3.33
2022-09-12T05:36:29.526Z,4.93
2022-09-12T05:39:00.047Z,3.30
2022-09-12T05:41:34.056Z,4.10
2022-09-12T05:44:05.641Z,3.72
2022-09-12T05:46:46.044Z,3.67
2022-09-12T05:49:14.862Z,3.33
2022-09-12T05:51:49.961Z,3.58
2022-09-12T05:54:25.538Z,3.67
2022-09-12T05:56:56.328Z,2.65
2022-09-12T05:59:24.715Z,3.80
2022-09-12T06:01:53.599Z,3.63
2022-09-12T06:04:21.571Z,2.92
2022-09-12T06:06:50.508Z,1.48
2022-09-12T06:09:18.673Z,4.57
2022-09-12T06:11:48.231Z,3.47
2022-09-12T06:14:18.243Z,3.20
2022-09-12T06:16:58.327Z,4.25
2022-09-12T06:19:28.469Z,4.18
2022-09-12T06:21:57.361Z,4.07
2022-09-12T06:24:25.842Z,4.85
2022-09-12T06:26:56.625Z,4.80
2022-09-12T06:29:26.491Z,2.40
2022-09-12T06:31:54.303Z,3.95
2022-09-12T06:34:22.355Z,4.15
2022-09-12T06:36:51.176Z,3.75
2022-09-12T06:39:25.614Z,4.10
2022-09-12T06:41:53.594Z,4.20
2022-09-12T06:44:34.068Z,3.58
2022-09-12T06:49:32.278Z,4.22
2022-09-12T06:52:00.126Z,4.45
2022-09-12T06:54:28.191Z,4.57
2022-09-12T06:59:23.781Z,4.82
2022-09-12T07:01:59.436Z,3.22
2022-09-12T07:04:28.102Z,3.50
2022-09-12T07:06:56.504Z,2.13
2022-09-12T07:09:24.894Z,4.95
2022-09-12T07:11:53.978Z,2.85
2022-09-12T07:14:22.602Z,4.93
2022-09-12T07:16:50.933Z,3.22
2022-09-12T07:19:18.796Z,2.97
2022-09-12T07:24:14.641Z,4.18
2022-09-12T07:26:42.896Z,3.70
2022-09-12T07:29:36.094Z,3.20
2022-09-12T07:32:06.151Z,3.90
2022-09-12T07:34:35.100Z,2.15
2022-09-12T07:37:03.961Z,3.25
2022-09-12T07:39:32.890Z,3.40
2022-09-12T07:42:00.940Z,2.42
2022-09-12T07:44:29.871Z,3.45
2022-09-12T07:46:57.922Z,5.18
2022-09-12T07:49:26.307Z,2.47
2022-09-12T07:51:54.521Z,2.75
2022-09-12T07:54:22.929Z,3.50
2022-09-12T07:56:51.135Z,3.53
2022-09-12T07:59:35.644Z,4.20
2022-09-12T08:02:16.567Z,3.80
2022-09-12T08:04:50.359Z,3.72
2022-09-12T08:07:19.766Z,1.80
2022-09-12T08:09:47.784Z,3.08
2022-09-12T08:12:16.948Z,2.55
2022-09-12T08:14:44.895Z,1.52
2022-09-12T08:17:12.915Z,2.47
2022-09-12T08:19:41.281Z,1.75
2022-09-12T08:22:08.974Z,2.88
2022-09-12T08:27:08.531Z,2.78
2022-09-12T08:29:38.300Z,1.55
2022-09-12T08:32:06.575Z,1.95
2022-09-12T08:34:35.154Z,2.08
2022-09-12T08:37:04.509Z,1.77
2022-09-12T08:39:35.518Z,1.27
2022-09-12T08:42:07.885Z,1.33
2022-09-12T08:44:35.768Z,2.08
2022-09-12T08:50:06.758Z,2.63
2022-09-12T08:52:59.006Z,2.05
2022-09-12T08:55:44.712Z,0.90
2022-09-12T08:58:24.487Z,1.73
2022-09-12T09:01:08.324Z,2.13
2022-09-12T09:03:45.971Z,0.80
2022-09-12T09:07:13.810Z,1.85
2022-09-12T09:10:12.987Z,1.83
2022-09-12T09:13:07.843Z,1.77
2022-09-12T09:15:59.859Z,2.20
2022-09-12T09:18:35.370Z,2.55
2022-09-12T09:21:20.575Z,0.85
2022-09-12T09:24:00.926Z,1.58
2022-09-12T09:27:43.577Z,1.77
2022-09-12T09:30:27.509Z,1.08
2022-09-12T09:33:04.423Z,1.42
2022-09-12T09:35:36.665Z,1.23
2022-09-12T09:38:49.726Z,1.10
2022-09-12T09:41:51.826Z,0.80
2022-09-12T09:44:19.773Z,1.63
2022-09-12T09:46:54.634Z,0.95
2022-09-12T09:49:27.420Z,0.80
2022-09-12T09:51:58.809Z,1.05
2022-09-12T09:54:50.516Z,2.22
2022-09-12T09:57:48.912Z,0.93
2022-09-12T10:00:27.834Z,0.57
2022-09-12T10:05:59.766Z,0.52
2022-09-12T10:08:38.181Z,1.58
2022-09-12T10:11:31.966Z,0.30
2022-09-12T10:14:01.844Z,0.60
2022-09-12T10:17:02.534Z,0.88
2022-09-12T10:19:38.924Z,0.25
2022-09-12T10:22:16.758Z,0.68
2022-09-12T10:24:52.728Z,0.43
2022-09-12T10:27:30.944Z,0.68
2022-09-12T10:30:18.270Z,0.98
2022-09-12T10:32:51.493Z,0.65
2022-09-12T10:35:21.031Z,0.68
2022-09-12T10:38:22.722Z,0.55
2022-09-12T10:41:08.024Z,0.60
2022-09-12T10:43:49.804Z,0.63
2022-09-12T10:46:20.352Z,0.47
2022-09-12T10:49:13.122Z,0.57
2022-09-12T10:52:00.654Z,0.45
2022-09-12T10:54:29.775Z,0.30
2022-09-12T10:57:10.541Z,0.25
2022-09-12T10:59:55.303Z,0.63
2022-09-12T11:02:36.309Z,0.10
2022-09-12T11:05:11.431Z,0.63
2022-09-12T11:07:52.848Z,0.17
2022-09-12T11:10:45.464Z,0.20
2022-09-12T11:13:28.079Z,0.50
2022-09-12T11:16:24.949Z,0.55
2022-09-12T11:19:25.571Z,0.20
2022-09-12T11:22:02.627Z,0.43
2022-09-12T11:24:51.153Z,0.20
2022-09-12T11:27:29.163Z,0.32
2022-09-12T11:30:09.019Z,0.40
2022-09-12T11:33:09.228Z,0.20
2022-09-12T11:35:53.029Z,0.30
2022-09-12T11:38:26.027Z,0.63
2022-09-12T11:40:56.443Z,0.17
2022-09-12T11:43:39.920Z,0.52
2022-09-12T11:47:00.435Z,0.38
2022-09-12T11:49:40.339Z,0.57
2022-09-12T11:52:15.778Z,0.32
2022-09-12T11:55:07.682Z,0.50
2022-09-12T11:57:44.580Z,0.65
2022-09-12T12:00:18.549Z,0.30
2022-09-12T12:03:24.133Z,1.10
2022-09-12T12:06:02.175Z,0.22
2022-09-12T12:08:32.434Z,0.28
2022-09-12T12:11:04.020Z,0.38
2022-09-12T12:13:34.991Z,0.35
2022-09-12T12:16:16.833Z,0.32
2022-09-12T12:18:46.776Z,0.15
2022-09-12T12:21:41.465Z,0.60
2022-09-12T12:24:10.081Z,0.28
2022-09-12T12:26:41.466Z,0.38
2022-09-12T12:29:11.931Z,0.28
2022-09-12T12:32:04.049Z,0.57
2022-09-12T12:34:35.000Z,0.50
2022-09-12T12:37:25.867Z,0.10
2022-09-12T12:40:04.623Z,0.38
2022-09-12T12:42:48.948Z,0.15
2022-09-12T12:45:20.841Z,0.30
2022-09-12T12:47:54.562Z,0.30
2022-09-12T12:54:04.529Z,0.30
2022-09-12T12:56:40.577Z,0.20
2022-09-12T12:59:25.015Z,0.10
2022-09-12T13:02:00.385Z,0.55
2022-09-12T13:04:37.272Z,0.50
2022-09-12T13:07:12.299Z,0.43
2022-09-12T13:09:47.796Z,0.52
2022-09-12T13:12:24.737Z,0.30
2022-09-12T13:15:06.067Z,0.20
2022-09-12T13:17:44.467Z,0.50
2022-09-12T13:20:40.355Z,0.40
2022-09-12T13:23:26.140Z,0.30
2022-09-12T13:25:58.005Z,0.20
2022-09-12T13:28:33.011Z,1.42
2022-09-12T13:31:15.483Z,0.88
2022-09-12T13:33:49.009Z,0.70
2022-09-12T13:40:31.718Z,0.20
2022-09-12T13:43:15.579Z,0.15
2022-09-12T13:45:48.676Z,0.20
2022-09-12T13:48:26.091Z,0.30
2022-09-12T13:51:03.382Z,0.10
2022-09-12T13:53:42.941Z,0.47
2022-09-12T13:56:18.325Z,0.10
2022-09-12T13:59:14.137Z,0.77
2022-09-12T14:01:47.373Z,0.28
2022-09-12T14:04:33.772Z,0.20
2022-09-12T14:07:10.315Z,0.10
2022-09-12T14:09:43.701Z,0.47
2022-09-12T14:12:38.090Z,0.52
2022-09-12T14:15:09.927Z,0.10
2022-09-12T14:17:44.399Z,0.65
2022-09-12T14:20:19.901Z,0.38
2022-09-12T14:22:51.162Z,0.47
2022-09-12T14:25:24.856Z,0.25
2022-09-12T14:27:59.584Z,0.28
2022-09-12T14:30:34.829Z,0.50
2022-09-12T14:33:11.213Z,0.20
2022-09-12T14:35:46.698Z,0.63
2022-09-12T14:38:15.275Z,0.10
2022-09-12T14:40:49.178Z,0.15
2022-09-12T14:43:32.197Z,0.50
2022-09-12T14:46:17.447Z,0.25
2022-09-12T14:48:55.924Z,0.70
2022-09-12T14:51:28.157Z,0.32
2022-09-12T14:53:59.137Z,0.43
2022-09-12T14:56:55.172Z,0.10
2022-09-12T14:59:40.041Z,0.13
2022-09-12T15:02:18.285Z,0.25
2022-09-12T15:05:05.199Z,0.30
2022-09-12T15:07:42.384Z,0.20
2022-09-12T15:10:25.794Z,0.73
2022-09-12T15:13:16.160Z,0.45
2022-09-12T15:15:56.011Z,0.22
2022-09-12T15:18:27.303Z,0.20
2022-09-12T15:21:01.788Z,0.28
2022-09-12T15:23:41.036Z,0.20
2022-09-12T15:26:12.683Z,0.17
2022-09-12T15:28:44.941Z,0.40
2022-09-12T15:31:16.854Z,0.45
2022-09-12T15:33:45.244Z,0.10
2022-09-12T15:36:16.853Z,1.27
2022-09-12T15:38:46.958Z,0.55
2022-09-12T15:41:23.805Z,0.25
2022-09-12T15:43:52.495Z,0.20
2022-09-12T15:46:21.269Z,0.28
2022-09-12T15:48:49.456Z,0.30
2022-09-12T15:54:17.272Z,0.32
2022-09-12T15:56:51.963Z,0.10
2022-09-12T15:59:19.133Z,0.30
2022-09-12T16:01:51.596Z,0.50
2022-09-12T16:04:23.269Z,0.47
2022-09-12T16:07:04.051Z,0.30
2022-09-12T16:09:33.062Z,0.50
2022-09-12T16:12:10.495Z,0.85
2022-09-12T16:14:38.313Z,1.98
2022-09-12T16:17:24.888Z,0.30
2022-09-12T16:19:52.351Z,0.32
2022-09-12T16:23:07.454Z,0.60
2022-09-12T16:25:34.728Z,0.30
2022-09-12T16:28:04.591Z,0.30
2022-09-12T16:30:35.319Z,0.20
2022-09-12T16:33:02.863Z,0.45
2022-09-12T16:35:31.898Z,0.45
2022-09-12T16:37:59.050Z,0.20
2022-09-12T16:40:26.163Z,0.20
2022-09-12T16:42:53.322Z,0.30
2022-09-12T16:45:20.548Z,0.40
2022-09-12T16:47:47.753Z,0.38
2022-09-12T16:50:14.875Z,0.28
2022-09-12T16:52:42.045Z,0.52
2022-09-12T16:55:10.024Z,0.75
2022-09-12T16:57:37.168Z,0.60
2022-09-12T17:00:05.257Z,0.40
2022-09-12T17:02:32.821Z,0.40
2022-09-12T17:05:00.028Z,0.55
2022-09-12T17:07:27.113Z,0.65
2022-09-12T17:09:54.386Z,0.52
2022-09-12T17:12:21.575Z,0.90
2022-09-12T17:14:48.784Z,0.43
2022-09-12T17:17:16.076Z,0.50
2022-09-12T17:19:43.944Z,1.17
2022-09-12T17:24:38.300Z,0.40
2022-09-12T17:27:05.845Z,0.40
2022-09-12T17:29:35.043Z,0.20
2022-09-12T17:32:02.421Z,0.50
2022-09-12T17:34:29.619Z,0.73
2022-09-12T17:36:56.714Z,0.20
2022-09-12T17:39:23.929Z,0.60
2022-09-12T17:41:51.913Z,0.75
2022-09-12T17:44:20.262Z,0.50
2022-09-12T17:46:47.454Z,0.73
2022-09-12T17:49:22.044Z,0.77
2022-09-12T17:51:49.389Z,0.77
2022-09-12T17:54:18.810Z,0.73
2022-09-12T17:56:49.631Z,1.73
2022-09-12T17:59:21.238Z,0.28
2022-09-12T18:02:08.519Z,0.63
2022-09-12T18:04:35.750Z,0.82
2022-09-12T18:07:02.873Z,0.45
2022-09-12T18:09:32.078Z,0.40
2022-09-12T18:11:59.847Z,0.50
2022-09-12T18:16:57.240Z,0.70
2022-09-12T18:19:24.501Z,0.30
2022-09-12T18:21:51.631Z,0.35
2022-09-12T18:24:19.233Z,0.38
2022-09-12T18:26:46.936Z,0.45
2022-09-12T18:29:17.616Z,0.80
2022-09-12T18:31:45.101Z,0.28
2022-09-12T18:34:13.763Z,0.63
2022-09-12T18:36:42.796Z,0.50
2022-09-12T18:39:10.711Z,0.68
2022-09-12T18:44:06.283Z,0.75
2022-09-12T18:46:35.027Z,0.40
2022-09-12T18:49:02.699Z,0.32
2022-09-12T18:51:34.888Z,0.22
2022-09-12T18:54:08.712Z,0.40
2022-09-12T18:56:38.396Z,0.30
2022-09-12T18:59:07.206Z,0.30
2022-09-12T19:01:36.782Z,0.85
2022-09-12T19:04:05.590Z,0.85
2022-09-12T19:06:39.525Z,0.60
2022-09-12T19:09:09.179Z,0.73
2022-09-12T19:11:39.556Z,0.60
2022-09-12T19:14:08.036Z,0.57
2022-09-12T19:16:35.803Z,1.45
2022-09-12T19:21:32.312Z,0.50
2022-09-12T19:24:03.675Z,0.95
2022-09-12T19:26:32.666Z,0.57
2022-09-12T19:29:02.479Z,0.60
2022-09-12T19:31:30.949Z,1.13
2022-09-12T19:34:05.408Z,0.45
2022-09-12T19:36:49.123Z,0.57
2022-09-12T19:39:17.876Z,0.70
2022-09-12T19:41:45.478Z,0.68
2022-09-12T19:44:12.887Z,0.55
2022-09-12T19:46:40.526Z,0.65
2022-09-12T19:49:09.364Z,0.35
2022-09-12T19:51:37.820Z,1.00
2022-09-12T19:54:06.548Z,0.88
2022-09-12T19:56:34.263Z,0.65
2022-09-12T19:59:01.705Z,0.85
2022-09-12T20:01:29.342Z,0.90
2022-09-12T20:06:26.143Z,0.65
2022-09-12T20:08:53.977Z,0.57
2022-09-12T20:13:51.187Z,0.80
2022-09-12T20:16:22.883Z,0.88
2022-09-12T20:19:01.171Z,1.27
2022-09-12T20:21:35.844Z,1.10
2022-09-12T20:24:04.635Z,0.93
2022-09-12T20:26:33.071Z,0.68
2022-09-12T20:29:00.491Z,0.30
2022-09-12T20:31:27.863Z,1.20
2022-09-12T20:33:55.288Z,0.63
2022-09-12T20:36:22.451Z,0.55
2022-09-12T20:38:52.111Z,1.08
2022-09-12T20:41:20.568Z,0.50
2022-09-12T20:43:54.904Z,1.63
2022-09-12T20:46:23.778Z,1.13
2022-09-12T20:48:52.100Z,0.57
2022-09-12T20:51:20.756Z,0.88
2022-09-12T20:53:48.765Z,0.50
2022-09-12T20:56:16.350Z,0.80
2022-09-12T20:58:44.654Z,0.60
2022-09-12T21:01:17.794Z,0.80
2022-09-12T21:03:46.507Z,0.80
2022-09-12T21:06:17.034Z,1.15
2022-09-12T21:08:45.576Z,1.02
2022-09-12T21:11:13.977Z,0.30
2022-09-12T21:13:41.207Z,1.00
2022-09-12T21:16:12.564Z,0.70
2022-09-12T21:18:41.556Z,0.68
2022-09-12T21:21:10.766Z,0.98
2022-09-12T21:23:46.264Z,0.60
2022-09-12T21:26:13.960Z,0.75
2022-09-12T21:28:41.000Z,0.98
2022-09-12T21:31:08.863Z,0.40
2022-09-12T21:36:07.044Z,0.40
2022-09-12T21:38:34.306Z,1.17
2022-09-12T21:41:14.054Z,0.47
2022-09-12T21:43:42.074Z,1.05
2022-09-12T21:46:10.257Z,0.63
2022-09-12T21:48:37.770Z,0.75
2022-09-12T21:51:05.175Z,1.75
2022-09-12T21:53:33.148Z,1.48
2022-09-12T21:56:01.794Z,1.42
2022-09-12T21:58:28.990Z,1.20
2022-09-12T22:00:56.205Z,0.82
2022-09-12T22:03:23.328Z,0.93
2022-09-12T22:05:58.319Z,1.15
2022-09-12T22:08:25.974Z,1.13
2022-09-12T22:10:53.249Z,1.02
2022-09-12T22:13:20.651Z,1.27
2022-09-12T22:15:52.119Z,0.82
2022-09-12T22:18:19.277Z,0.50
2022-09-12T22:20:46.479Z,1.15
2022-09-12T22:23:42.914Z,0.95
2022-09-12T22:26:10.131Z,0.40
2022-09-12T22:28:37.682Z,1.33
2022-09-12T22:31:05.617Z,1.92
2022-09-12T22:36:00.070Z,1.02
2022-09-12T22:38:27.375Z,0.57
2022-09-12T22:40:54.499Z,0.50
2022-09-12T22:43:21.611Z,2.10
2022-09-12T22:45:48.787Z,0.55
2022-09-12T22:48:17.177Z,1.88
2022-09-12T22:50:45.523Z,1.52
2022-09-12T22:53:12.663Z,1.35
2022-09-12T22:55:39.770Z,1.42
2022-09-12T22:58:06.857Z,1.02
2022-09-12T23:00:34.241Z,0.80
2022-09-12T23:03:01.855Z,0.85
2022-09-12T23:05:29.336Z,0.40
2022-09-12T23:07:56.493Z,1.88
2022-09-12T23:10:23.598Z,0.93
2022-09-12T23:12:50.869Z,1.15
2022-09-12T23:15:18.004Z,1.00
2022-09-12T23:17:45.193Z,1.07
2022-09-12T23:20:12.365Z,0.73
2022-09-12T23:22:39.468Z,1.02
2022-09-12T23:25:07.674Z,0.47
2022-09-12T23:27:35.337Z,1.55
2022-09-12T23:30:02.702Z,0.77
2022-09-12T23:32:30.144Z,1.35
2022-09-12T23:34:57.819Z,1.30
2022-09-12T23:37:26.092Z,1.92
2022-09-12T23:39:53.282Z,1.13
2022-09-12T23:42:20.457Z,1.40
2022-09-12T23:44:47.578Z,1.02
2022-09-12T23:47:14.884Z,0.38
2022-09-12T23:49:42.077Z,0.63
2022-09-12T23:52:09.204Z,1.48
2022-09-12T23:54:36.959Z,1.02
2022-09-12T23:57:04.169Z,1.52
2022-09-12T23:59:31.346Z,0.60
